KLYO/LYO METAR and TAF weather

Enter ICAO airport designator
Station Type Date Time Source
KLYO METAR 2022/01/18 06:55 UTC NOAA

KLYO 180655Z AUTO 18006KT 10SM CLR 02/M06 A2983 RMK AO2 T00201058


Station Type Date Time Source
KLYO Decoded METAR 2022/01/18 06:55 UTC NOAA

Station name not available
Jan 18, 2022 - 01:55 AM EST / 2022.01.18 0655 UTC
Wind: from the S (180 degrees) at 7 MPH (6 KT):0
Visibility: 10 mile(s):0
Sky conditions: clear
Temperature: 35.6 F (2.0 C)
Dew Point: 21.6 F (-5.8 C)
Relative Humidity: 56%
Pressure (altimeter): 29.83 in. Hg (1010 hPa)
ob: KLYO 180655Z AUTO 18006KT 10SM CLR 02/M06 A2983 RMK AO2 T00201058
cycle: 7

Station Type Date Time Source
KLYO TAF UTC NOAA

Error!

Example: see airport list